sensor_id;sensor_type;location;lat;lon;timestamp;P1;durP1;ratioP1;P2;durP2;ratioP2
30874;SDS011;17581;43.222;27.924;2022-09-09T00:04:24;11.25;;;3.13;;
30874;SDS011;17581;43.222;27.924;2022-09-09T00:09:40;13.07;;;3.65;;
30874;SDS011;17581;43.222;27.924;2022-09-09T00:12:26;11.60;;;3.67;;
30874;SDS011;17581;43.222;27.924;2022-09-09T00:23:08;5.10;;;2.40;;
30874;SDS011;17581;43.222;27.924;2022-09-09T00:25:45;3.95;;;2.67;;
30874;SDS011;17581;43.222;27.924;2022-09-09T00:28:19;6.03;;;2.47;;
30874;SDS011;17581;43.222;27.924;2022-09-09T00:30:47;12.18;;;2.83;;
30874;SDS011;17581;43.222;27.924;2022-09-09T00:33:13;5.03;;;2.70;;
30874;SDS011;17581;43.222;27.924;2022-09-09T00:35:49;5.80;;;2.70;;
30874;SDS011;17581;43.222;27.924;2022-09-09T00:38:36;8.38;;;2.50;;
30874;SDS011;17581;43.222;27.924;2022-09-09T00:43:41;11.55;;;3.80;;
30874;SDS011;17581;43.222;27.924;2022-09-09T00:48:52;14.15;;;2.53;;
30874;SDS011;17581;43.222;27.924;2022-09-09T00:56:26;6.47;;;2.50;;
30874;SDS011;17581;43.222;27.924;2022-09-09T01:01:49;6.70;;;3.13;;
30874;SDS011;17581;43.222;27.924;2022-09-09T01:04:18;12.00;;;2.97;;
30874;SDS011;17581;43.222;27.924;2022-09-09T01:06:55;6.10;;;2.50;;
30874;SDS011;17581;43.222;27.924;2022-09-09T01:12:24;8.38;;;2.35;;
30874;SDS011;17581;43.222;27.924;2022-09-09T01:15:07;17.05;;;3.13;;
30874;SDS011;17581;43.222;27.924;2022-09-09T01:17:44;12.90;;;2.63;;
30874;SDS011;17581;43.222;27.924;2022-09-09T01:20:23;12.23;;;2.88;;
30874;SDS011;17581;43.222;27.924;2022-09-09T01:28:25;6.55;;;2.90;;
30874;SDS011;17581;43.222;27.924;2022-09-09T01:30:52;8.77;;;2.95;;
30874;SDS011;17581;43.222;27.924;2022-09-09T01:33:18;23.55;;;2.80;;
30874;SDS011;17581;43.222;27.924;2022-09-09T01:38:19;7.72;;;2.72;;
30874;SDS011;17581;43.222;27.924;2022-09-09T01:40:46;14.68;;;2.85;;
30874;SDS011;17581;43.222;27.924;2022-09-09T01:43:12;10.32;;;3.10;;
30874;SDS011;17581;43.222;27.924;2022-09-09T01:45:39;10.75;;;2.60;;
30874;SDS011;17581;43.222;27.924;2022-09-09T01:48:13;8.75;;;2.15;;
30874;SDS011;17581;43.222;27.924;2022-09-09T01:50:39;6.65;;;2.72;;
30874;SDS011;17581;43.222;27.924;2022-09-09T01:53:04;6.50;;;2.75;;
30874;SDS011;17581;43.222;27.924;2022-09-09T01:55:37;10.85;;;3.53;;
30874;SDS011;17581;43.222;27.924;2022-09-09T02:01:16;8.35;;;2.67;;
30874;SDS011;17581;43.222;27.924;2022-09-09T02:04:33;14.30;;;2.67;;
30874;SDS011;17581;43.222;27.924;2022-09-09T02:06:57;11.65;;;2.80;;
30874;SDS011;17581;43.222;27.924;2022-09-09T02:09:25;6.03;;;2.20;;
30874;SDS011;17581;43.222;27.924;2022-09-09T02:11:54;20.08;;;3.03;;
30874;SDS011;17581;43.222;27.924;2022-09-09T02:14:46;51.08;;;5.30;;
30874;SDS011;17581;43.222;27.924;2022-09-09T02:17:19;16.83;;;3.92;;
30874;SDS011;17581;43.222;27.924;2022-09-09T02:20:06;8.63;;;2.40;;
30874;SDS011;17581;43.222;27.924;2022-09-09T02:22:34;12.63;;;2.67;;
30874;SDS011;17581;43.222;27.924;2022-09-09T02:25:05;15.45;;;3.42;;
30874;SDS011;17581;43.222;27.924;2022-09-09T02:27:33;8.50;;;2.70;;
30874;SDS011;17581;43.222;27.924;2022-09-09T02:29:59;7.22;;;2.60;;
30874;SDS011;17581;43.222;27.924;2022-09-09T02:32:27;16.83;;;3.40;;
30874;SDS011;17581;43.222;27.924;2022-09-09T02:34:58;12.88;;;2.88;;
30874;SDS011;17581;43.222;27.924;2022-09-09T02:37:33;18.83;;;3.00;;
30874;SDS011;17581;43.222;27.924;2022-09-09T02:40:03;12.88;;;3.95;;
30874;SDS011;17581;43.222;27.924;2022-09-09T02:42:29;27.67;;;4.60;;
30874;SDS011;17581;43.222;27.924;2022-09-09T02:44:55;35.55;;;5.78;;
30874;SDS011;17581;43.222;27.924;2022-09-09T02:55:56;13.13;;;3.42;;
30874;SDS011;17581;43.222;27.924;2022-09-09T02:58:27;12.25;;;3.75;;
30874;SDS011;17581;43.222;27.924;2022-09-09T03:00:52;33.13;;;4.82;;
30874;SDS011;17581;43.222;27.924;2022-09-09T03:03:19;20.27;;;5.25;;
30874;SDS011;17581;43.222;27.924;2022-09-09T03:05:46;21.35;;;3.80;;
30874;SDS011;17581;43.222;27.924;2022-09-09T03:08:12;39.45;;;4.82;;
30874;SDS011;17581;43.222;27.924;2022-09-09T03:10:38;36.92;;;5.22;;
30874;SDS011;17581;43.222;27.924;2022-09-09T03:13:04;25.33;;;7.30;;
30874;SDS011;17581;43.222;27.924;2022-09-09T03:15:31;31.90;;;5.90;;
30874;SDS011;17581;43.222;27.924;2022-09-09T03:17:57;26.02;;;5.57;;
30874;SDS011;17581;43.222;27.924;2022-09-09T03:20:24;35.35;;;4.57;;
30874;SDS011;17581;43.222;27.924;2022-09-09T03:22:51;157.50;;;11.38;;
30874;SDS011;17581;43.222;27.924;2022-09-09T03:25:17;111.05;;;9.77;;
30874;SDS011;17581;43.222;27.924;2022-09-09T03:27:43;54.60;;;8.45;;
30874;SDS011;17581;43.222;27.924;2022-09-09T03:30:09;42.63;;;8.38;;
30874;SDS011;17581;43.222;27.924;2022-09-09T03:32:36;20.30;;;4.30;;
30874;SDS011;17581;43.222;27.924;2022-09-09T03:35:02;22.20;;;6.82;;
30874;SDS011;17581;43.222;27.924;2022-09-09T03:37:28;21.50;;;4.43;;
30874;SDS011;17581;43.222;27.924;2022-09-09T03:39:54;25.60;;;4.90;;
30874;SDS011;17581;43.222;27.924;2022-09-09T03:42:20;9.43;;;3.97;;
30874;SDS011;17581;43.222;27.924;2022-09-09T03:44:46;26.80;;;4.03;;
30874;SDS011;17581;43.222;27.924;2022-09-09T03:47:14;14.23;;;3.88;;
30874;SDS011;17581;43.222;27.924;2022-09-09T03:49:41;30.38;;;4.63;;
30874;SDS011;17581;43.222;27.924;2022-09-09T03:52:08;24.30;;;4.30;;
30874;SDS011;17581;43.222;27.924;2022-09-09T03:54:33;28.52;;;3.58;;
30874;SDS011;17581;43.222;27.924;2022-09-09T03:56:59;30.15;;;5.88;;
30874;SDS011;17581;43.222;27.924;2022-09-09T03:59:25;54.17;;;8.55;;
30874;SDS011;17581;43.222;27.924;2022-09-09T04:01:51;109.63;;;9.57;;
30874;SDS011;17581;43.222;27.924;2022-09-09T04:04:17;118.88;;;10.32;;
30874;SDS011;17581;43.222;27.924;2022-09-09T04:06:42;91.32;;;9.02;;
30874;SDS011;17581;43.222;27.924;2022-09-09T04:09:08;67.28;;;8.48;;
30874;SDS011;17581;43.222;27.924;2022-09-09T04:11:33;83.03;;;9.50;;
30874;SDS011;17581;43.222;27.924;2022-09-09T04:13:59;87.00;;;9.55;;
30874;SDS011;17581;43.222;27.924;2022-09-09T04:16:25;102.55;;;11.23;;
30874;SDS011;17581;43.222;27.924;2022-09-09T04:18:51;96.07;;;10.80;;
30874;SDS011;17581;43.222;27.924;2022-09-09T04:21:18;66.47;;;8.30;;
30874;SDS011;17581;43.222;27.924;2022-09-09T04:23:43;86.88;;;9.00;;
30874;SDS011;17581;43.222;27.924;2022-09-09T04:26:09;131.05;;;11.65;;
30874;SDS011;17581;43.222;27.924;2022-09-09T04:28:35;99.90;;;10.73;;
30874;SDS011;17581;43.222;27.924;2022-09-09T04:31:06;121.30;;;9.52;;
30874;SDS011;17581;43.222;27.924;2022-09-09T04:33:32;127.20;;;12.45;;
30874;SDS011;17581;43.222;27.924;2022-09-09T04:35:58;152.85;;;13.45;;
30874;SDS011;17581;43.222;27.924;2022-09-09T04:38:23;134.10;;;13.73;;
30874;SDS011;17581;43.222;27.924;2022-09-09T04:40:50;132.98;;;13.02;;
30874;SDS011;17581;43.222;27.924;2022-09-09T04:43:17;168.20;;;14.80;;
30874;SDS011;17581;43.222;27.924;2022-09-09T04:45:46;109.32;;;14.70;;
30874;SDS011;17581;43.222;27.924;2022-09-09T04:48:13;89.22;;;10.98;;
30874;SDS011;17581;43.222;27.924;2022-09-09T04:50:39;92.20;;;9.82;;
30874;SDS011;17581;43.222;27.924;2022-09-09T04:53:05;99.95;;;16.38;;
30874;SDS011;17581;43.222;27.924;2022-09-09T04:55:31;79.95;;;16.55;;
30874;SDS011;17581;43.222;27.924;2022-09-09T04:58:02;48.90;;;8.05;;
30874;SDS011;17581;43.222;27.924;2022-09-09T05:00:31;68.25;;;10.25;;
30874;SDS011;17581;43.222;27.924;2022-09-09T05:03:01;58.83;;;8.52;;
30874;SDS011;17581;43.222;27.924;2022-09-09T05:05:28;97.80;;;15.07;;
30874;SDS011;17581;43.222;27.924;2022-09-09T05:07:53;60.45;;;11.75;;
30874;SDS011;17581;43.222;27.924;2022-09-09T05:10:18;118.32;;;13.10;;
30874;SDS011;17581;43.222;27.924;2022-09-09T05:12:51;52.97;;;8.75;;
30874;SDS011;17581;43.222;27.924;2022-09-09T05:15:17;49.60;;;8.40;;
30874;SDS011;17581;43.222;27.924;2022-09-09T05:17:43;50.72;;;6.00;;
30874;SDS011;17581;43.222;27.924;2022-09-09T05:20:08;48.67;;;8.38;;
30874;SDS011;17581;43.222;27.924;2022-09-09T05:22:34;58.70;;;10.43;;
30874;SDS011;17581;43.222;27.924;2022-09-09T05:25:01;100.70;;;10.88;;
30874;SDS011;17581;43.222;27.924;2022-09-09T05:27:26;67.43;;;9.00;;
30874;SDS011;17581;43.222;27.924;2022-09-09T05:29:51;10.82;;;3.97;;
30874;SDS011;17581;43.222;27.924;2022-09-09T05:32:17;37.17;;;7.15;;
30874;SDS011;17581;43.222;27.924;2022-09-09T05:34:42;26.48;;;4.65;;
30874;SDS011;17581;43.222;27.924;2022-09-09T05:37:08;6.15;;;3.13;;
30874;SDS011;17581;43.222;27.924;2022-09-09T05:39:33;13.75;;;2.60;;
30874;SDS011;17581;43.222;27.924;2022-09-09T05:42:01;16.88;;;3.60;;
30874;SDS011;17581;43.222;27.924;2022-09-09T05:44:29;8.57;;;2.50;;
30874;SDS011;17581;43.222;27.924;2022-09-09T05:46:54;46.40;;;7.28;;
30874;SDS011;17581;43.222;27.924;2022-09-09T05:49:20;4.25;;;2.60;;
30874;SDS011;17581;43.222;27.924;2022-09-09T05:51:46;7.00;;;2.15;;
30874;SDS011;17581;43.222;27.924;2022-09-09T05:54:13;8.45;;;2.60;;
30874;SDS011;17581;43.222;27.924;2022-09-09T05:56:41;14.52;;;3.22;;
30874;SDS011;17581;43.222;27.924;2022-09-09T05:59:07;10.85;;;2.83;;
30874;SDS011;17581;43.222;27.924;2022-09-09T06:01:33;5.28;;;2.15;;
30874;SDS011;17581;43.222;27.924;2022-09-09T06:04:00;13.98;;;2.63;;
30874;SDS011;17581;43.222;27.924;2022-09-09T06:06:35;33.28;;;3.25;;
30874;SDS011;17581;43.222;27.924;2022-09-09T06:09:04;18.90;;;3.35;;
30874;SDS011;17581;43.222;27.924;2022-09-09T06:11:36;13.50;;;2.77;;
30874;SDS011;17581;43.222;27.924;2022-09-09T06:14:03;16.05;;;4.43;;
30874;SDS011;17581;43.222;27.924;2022-09-09T06:16:30;10.00;;;2.60;;
30874;SDS011;17581;43.222;27.924;2022-09-09T06:18:59;4.28;;;2.03;;
30874;SDS011;17581;43.222;27.924;2022-09-09T06:23:53;10.43;;;2.63;;
30874;SDS011;17581;43.222;27.924;2022-09-09T06:26:20;4.65;;;2.50;;
30874;SDS011;17581;43.222;27.924;2022-09-09T06:28:47;6.05;;;2.63;;
30874;SDS011;17581;43.222;27.924;2022-09-09T06:31:15;10.80;;;2.55;;
30874;SDS011;17581;43.222;27.924;2022-09-09T06:33:42;14.32;;;2.17;;
30874;SDS011;17581;43.222;27.924;2022-09-09T06:36:13;9.25;;;2.30;;
30874;SDS011;17581;43.222;27.924;2022-09-09T06:38:40;14.90;;;2.63;;
30874;SDS011;17581;43.222;27.924;2022-09-09T06:41:07;13.18;;;2.72;;
30874;SDS011;17581;43.222;27.924;2022-09-09T06:43:33;11.70;;;2.60;;
30874;SDS011;17581;43.222;27.924;2022-09-09T06:46:08;6.85;;;2.25;;
30874;SDS011;17581;43.222;27.924;2022-09-09T06:48:35;2.97;;;1.73;;
30874;SDS011;17581;43.222;27.924;2022-09-09T06:53:43;29.83;;;3.63;;
30874;SDS011;17581;43.222;27.924;2022-09-09T06:58:36;10.73;;;2.83;;
30874;SDS011;17581;43.222;27.924;2022-09-09T07:01:09;8.45;;;4.50;;
30874;SDS011;17581;43.222;27.924;2022-09-09T07:03:37;8.88;;;2.25;;
30874;SDS011;17581;43.222;27.924;2022-09-09T07:06:03;2.75;;;1.80;;
30874;SDS011;17581;43.222;27.924;2022-09-09T07:08:29;7.03;;;2.70;;
30874;SDS011;17581;43.222;27.924;2022-09-09T07:11:03;4.35;;;2.40;;
30874;SDS011;17581;43.222;27.924;2022-09-09T07:13:30;18.48;;;3.05;;
30874;SDS011;17581;43.222;27.924;2022-09-09T07:16:02;16.13;;;2.92;;
30874;SDS011;17581;43.222;27.924;2022-09-09T07:18:31;7.22;;;2.10;;
30874;SDS011;17581;43.222;27.924;2022-09-09T07:20:57;5.85;;;2.38;;
30874;SDS011;17581;43.222;27.924;2022-09-09T07:23:24;15.95;;;2.78;;
30874;SDS011;17581;43.222;27.924;2022-09-09T07:25:50;10.55;;;2.67;;
30874;SDS011;17581;43.222;27.924;2022-09-09T07:28:21;5.90;;;2.13;;
30874;SDS011;17581;43.222;27.924;2022-09-09T07:30:57;16.25;;;3.15;;
30874;SDS011;17581;43.222;27.924;2022-09-09T07:33:29;4.53;;;1.67;;
30874;SDS011;17581;43.222;27.924;2022-09-09T07:36:07;5.28;;;1.73;;
30874;SDS011;17581;43.222;27.924;2022-09-09T07:38:54;4.55;;;2.13;;
30874;SDS011;17581;43.222;27.924;2022-09-09T07:41:25;8.55;;;2.45;;
30874;SDS011;17581;43.222;27.924;2022-09-09T07:43:53;7.67;;;2.67;;
30874;SDS011;17581;43.222;27.924;2022-09-09T07:46:19;7.50;;;2.33;;
30874;SDS011;17581;43.222;27.924;2022-09-09T07:48:46;4.28;;;1.77;;
30874;SDS011;17581;43.222;27.924;2022-09-09T07:51:35;8.68;;;2.42;;
30874;SDS011;17581;43.222;27.924;2022-09-09T07:54:04;9.55;;;2.40;;
30874;SDS011;17581;43.222;27.924;2022-09-09T07:56:32;6.32;;;2.22;;
30874;SDS011;17581;43.222;27.924;2022-09-09T07:58:58;8.30;;;1.85;;
30874;SDS011;17581;43.222;27.924;2022-09-09T08:01:28;12.57;;;1.85;;
30874;SDS011;17581;43.222;27.924;2022-09-09T08:06:34;6.80;;;2.90;;
30874;SDS011;17581;43.222;27.924;2022-09-09T08:09:05;4.65;;;2.13;;
30874;SDS011;17581;43.222;27.924;2022-09-09T08:11:32;5.13;;;2.55;;
30874;SDS011;17581;43.222;27.924;2022-09-09T08:13:59;5.53;;;1.80;;
30874;SDS011;17581;43.222;27.924;2022-09-09T08:16:25;3.85;;;1.63;;
30874;SDS011;17581;43.222;27.924;2022-09-09T08:18:53;11.90;;;3.28;;
30874;SDS011;17581;43.222;27.924;2022-09-09T08:21:25;7.97;;;2.47;;
30874;SDS011;17581;43.222;27.924;2022-09-09T08:23:53;10.95;;;1.85;;
30874;SDS011;17581;43.222;27.924;2022-09-09T08:26:21;6.82;;;2.22;;
30874;SDS011;17581;43.222;27.924;2022-09-09T08:28:49;8.75;;;1.80;;
30874;SDS011;17581;43.222;27.924;2022-09-09T08:31:21;7.65;;;1.88;;
30874;SDS011;17581;43.222;27.924;2022-09-09T08:33:48;13.23;;;2.80;;
30874;SDS011;17581;43.222;27.924;2022-09-09T08:36:15;5.45;;;2.33;;
30874;SDS011;17581;43.222;27.924;2022-09-09T08:38:48;5.45;;;2.95;;
30874;SDS011;17581;43.222;27.924;2022-09-09T08:41:21;9.20;;;2.40;;
30874;SDS011;17581;43.222;27.924;2022-09-09T08:52:44;5.38;;;1.75;;
30874;SDS011;17581;43.222;27.924;2022-09-09T08:55:29;22.45;;;3.95;;
30874;SDS011;17581;43.222;27.924;2022-09-09T08:58:02;7.55;;;2.00;;
30874;SDS011;17581;43.222;27.924;2022-09-09T09:03:24;5.43;;;1.98;;
30874;SDS011;17581;43.222;27.924;2022-09-09T09:11:55;78.57;;;5.72;;
30874;SDS011;17581;43.222;27.924;2022-09-09T09:14:26;3.47;;;1.83;;
30874;SDS011;17581;43.222;27.924;2022-09-09T09:16:56;6.35;;;1.35;;
30874;SDS011;17581;43.222;27.924;2022-09-09T09:19:24;21.25;;;2.25;;
30874;SDS011;17581;43.222;27.924;2022-09-09T09:24:25;14.57;;;3.50;;
30874;SDS011;17581;43.222;27.924;2022-09-09T09:26:57;20.33;;;2.30;;
30874;SDS011;17581;43.222;27.924;2022-09-09T09:29:26;14.10;;;2.33;;
30874;SDS011;17581;43.222;27.924;2022-09-09T09:31:54;10.05;;;2.97;;
30874;SDS011;17581;43.222;27.924;2022-09-09T09:34:23;3.95;;;1.88;;
30874;SDS011;17581;43.222;27.924;2022-09-09T09:36:53;22.63;;;2.70;;
30874;SDS011;17581;43.222;27.924;2022-09-09T09:39:24;16.48;;;2.05;;
30874;SDS011;17581;43.222;27.924;2022-09-09T09:41:53;8.75;;;2.38;;
30874;SDS011;17581;43.222;27.924;2022-09-09T09:44:21;8.23;;;2.00;;
30874;SDS011;17581;43.222;27.924;2022-09-09T09:46:49;4.35;;;2.00;;
30874;SDS011;17581;43.222;27.924;2022-09-09T09:49:15;23.23;;;2.33;;
30874;SDS011;17581;43.222;27.924;2022-09-09T09:51:40;6.30;;;2.13;;
30874;SDS011;17581;43.222;27.924;2022-09-09T09:56:43;7.53;;;2.50;;
30874;SDS011;17581;43.222;27.924;2022-09-09T10:01:54;8.43;;;2.13;;
30874;SDS011;17581;43.222;27.924;2022-09-09T10:04:20;15.85;;;2.47;;
30874;SDS011;17581;43.222;27.924;2022-09-09T10:06:48;7.40;;;2.28;;
30874;SDS011;17581;43.222;27.924;2022-09-09T10:09:25;18.48;;;2.17;;
30874;SDS011;17581;43.222;27.924;2022-09-09T10:26:58;15.52;;;2.45;;
30874;SDS011;17581;43.222;27.924;2022-09-09T10:39:48;12.98;;;2.65;;
30874;SDS011;17581;43.222;27.924;2022-09-09T10:42:23;4.03;;;1.77;;
30874;SDS011;17581;43.222;27.924;2022-09-09T10:47:57;6.70;;;1.83;;
30874;SDS011;17581;43.222;27.924;2022-09-09T10:50:44;12.32;;;2.10;;
30874;SDS011;17581;43.222;27.924;2022-09-09T10:53:24;16.05;;;2.22;;
30874;SDS011;17581;43.222;27.924;2022-09-09T10:55:58;12.48;;;3.03;;
30874;SDS011;17581;43.222;27.924;2022-09-09T11:04:21;5.82;;;2.47;;
30874;SDS011;17581;43.222;27.924;2022-09-09T11:06:56;14.60;;;2.72;;
30874;SDS011;17581;43.222;27.924;2022-09-09T11:09:23;7.78;;;2.45;;
30874;SDS011;17581;43.222;27.924;2022-09-09T11:11:55;5.43;;;1.90;;
30874;SDS011;17581;43.222;27.924;2022-09-09T11:14:29;7.93;;;2.88;;
30874;SDS011;17581;43.222;27.924;2022-09-09T11:19:51;15.82;;;2.17;;
30874;SDS011;17581;43.222;27.924;2022-09-09T11:28:32;12.35;;;2.15;;
30874;SDS011;17581;43.222;27.924;2022-09-09T11:33:41;7.55;;;2.10;;
30874;SDS011;17581;43.222;27.924;2022-09-09T11:39:43;12.02;;;2.08;;
30874;SDS011;17581;43.222;27.924;2022-09-09T11:41:51;11.65;;;1.75;;
30874;SDS011;17581;43.222;27.924;2022-09-09T11:44:18;8.75;;;2.85;;
30874;SDS011;17581;43.222;27.924;2022-09-09T11:46:51;13.60;;;2.05;;
30874;SDS011;17581;43.222;27.924;2022-09-09T11:49:26;5.28;;;2.65;;
30874;SDS011;17581;43.222;27.924;2022-09-09T11:51:53;19.27;;;2.33;;
30874;SDS011;17581;43.222;27.924;2022-09-09T11:54:32;7.10;;;1.90;;
30874;SDS011;17581;43.222;27.924;2022-09-09T11:57:25;10.57;;;2.28;;
30874;SDS011;17581;43.222;27.924;2022-09-09T11:59:57;17.13;;;2.97;;
30874;SDS011;17581;43.222;27.924;2022-09-09T12:02:25;6.82;;;1.83;;
30874;SDS011;17581;43.222;27.924;2022-09-09T12:04:57;3.55;;;2.05;;
30874;SDS011;17581;43.222;27.924;2022-09-09T12:10:22;8.32;;;2.05;;
30874;SDS011;17581;43.222;27.924;2022-09-09T12:12:53;5.68;;;1.52;;
30874;SDS011;17581;43.222;27.924;2022-09-09T12:15:20;7.03;;;2.38;;
30874;SDS011;17581;43.222;27.924;2022-09-09T12:17:51;3.13;;;1.60;;
30874;SDS011;17581;43.222;27.924;2022-09-09T12:20:23;198.45;;;15.13;;
30874;SDS011;17581;43.222;27.924;2022-09-09T12:28:23;8.27;;;1.40;;
30874;SDS011;17581;43.222;27.924;2022-09-09T12:30:59;9.23;;;1.88;;
30874;SDS011;17581;43.222;27.924;2022-09-09T12:33:36;7.47;;;1.65;;
30874;SDS011;17581;43.222;27.924;2022-09-09T12:36:08;8.57;;;1.55;;
30874;SDS011;17581;43.222;27.924;2022-09-09T12:38:39;17.30;;;2.85;;
30874;SDS011;17581;43.222;27.924;2022-09-09T12:41:06;8.50;;;2.47;;
30874;SDS011;17581;43.222;27.924;2022-09-09T12:43:44;5.88;;;1.70;;
30874;SDS011;17581;43.222;27.924;2022-09-09T12:46:12;5.97;;;1.52;;
30874;SDS011;17581;43.222;27.924;2022-09-09T12:48:58;11.73;;;2.08;;
30874;SDS011;17581;43.222;27.924;2022-09-09T12:51:27;4.82;;;2.00;;
30874;SDS011;17581;43.222;27.924;2022-09-09T12:53:55;4.90;;;1.30;;
30874;SDS011;17581;43.222;27.924;2022-09-09T12:56:22;6.32;;;1.83;;
30874;SDS011;17581;43.222;27.924;2022-09-09T12:58:52;5.65;;;1.90;;
30874;SDS011;17581;43.222;27.924;2022-09-09T13:01:23;5.25;;;2.38;;
30874;SDS011;17581;43.222;27.924;2022-09-09T13:03:56;15.70;;;2.63;;
30874;SDS011;17581;43.222;27.924;2022-09-09T13:06:26;10.77;;;1.98;;
30874;SDS011;17581;43.222;27.924;2022-09-09T13:08:53;18.70;;;3.30;;
30874;SDS011;17581;43.222;27.924;2022-09-09T13:11:23;13.48;;;1.92;;
30874;SDS011;17581;43.222;27.924;2022-09-09T13:14:01;15.27;;;2.30;;
30874;SDS011;17581;43.222;27.924;2022-09-09T13:16:32;6.95;;;1.52;;
30874;SDS011;17581;43.222;27.924;2022-09-09T13:19:06;5.33;;;1.90;;
30874;SDS011;17581;43.222;27.924;2022-09-09T13:21:36;15.77;;;2.55;;
30874;SDS011;17581;43.222;27.924;2022-09-09T13:24:05;11.93;;;2.75;;
30874;SDS011;17581;43.222;27.924;2022-09-09T13:26:32;8.13;;;2.20;;
30874;SDS011;17581;43.222;27.924;2022-09-09T13:29:16;12.38;;;2.45;;
30874;SDS011;17581;43.222;27.924;2022-09-09T13:31:43;6.03;;;2.38;;
30874;SDS011;17581;43.222;27.924;2022-09-09T13:34:13;8.70;;;2.28;;
30874;SDS011;17581;43.222;27.924;2022-09-09T13:37:07;11.00;;;2.63;;
30874;SDS011;17581;43.222;27.924;2022-09-09T13:39:53;13.60;;;3.13;;
30874;SDS011;17581;43.222;27.924;2022-09-09T13:42:29;11.30;;;3.25;;
30874;SDS011;17581;43.222;27.924;2022-09-09T13:45:03;14.20;;;3.08;;
30874;SDS011;17581;43.222;27.924;2022-09-09T13:47:36;8.00;;;2.88;;
30874;SDS011;17581;43.222;27.924;2022-09-09T13:52:47;7.78;;;2.80;;
30874;SDS011;17581;43.222;27.924;2022-09-09T13:55:15;9.48;;;3.25;;
30874;SDS011;17581;43.222;27.924;2022-09-09T13:57:49;9.38;;;2.65;;
30874;SDS011;17581;43.222;27.924;2022-09-09T14:00:19;9.23;;;2.80;;
30874;SDS011;17581;43.222;27.924;2022-09-09T14:02:47;7.57;;;3.55;;
30874;SDS011;17581;43.222;27.924;2022-09-09T14:05:13;23.63;;;3.70;;
30874;SDS011;17581;43.222;27.924;2022-09-09T14:07:40;5.50;;;3.17;;
30874;SDS011;17581;43.222;27.924;2022-09-09T14:10:08;16.15;;;2.90;;
30874;SDS011;17581;43.222;27.924;2022-09-09T14:12:38;10.00;;;2.78;;
30874;SDS011;17581;43.222;27.924;2022-09-09T14:15:04;9.10;;;3.33;;
30874;SDS011;17581;43.222;27.924;2022-09-09T14:17:32;10.45;;;3.45;;
30874;SDS011;17581;43.222;27.924;2022-09-09T14:19:58;12.52;;;4.72;;
30874;SDS011;17581;43.222;27.924;2022-09-09T14:22:24;14.07;;;2.95;;
30874;SDS011;17581;43.222;27.924;2022-09-09T14:24:51;5.82;;;3.15;;
30874;SDS011;17581;43.222;27.924;2022-09-09T14:27:16;6.15;;;2.95;;
30874;SDS011;17581;43.222;27.924;2022-09-09T14:29:43;6.03;;;2.72;;
30874;SDS011;17581;43.222;27.924;2022-09-09T14:32:09;9.57;;;3.70;;
30874;SDS011;17581;43.222;27.924;2022-09-09T14:34:36;20.80;;;3.25;;
30874;SDS011;17581;43.222;27.924;2022-09-09T14:37:03;7.43;;;3.22;;
30874;SDS011;17581;43.222;27.924;2022-09-09T14:39:29;8.23;;;3.53;;
30874;SDS011;17581;43.222;27.924;2022-09-09T14:41:55;17.48;;;4.32;;
30874;SDS011;17581;43.222;27.924;2022-09-09T14:44:21;7.57;;;3.70;;
30874;SDS011;17581;43.222;27.924;2022-09-09T14:46:47;6.70;;;2.92;;
30874;SDS011;17581;43.222;27.924;2022-09-09T14:49:15;6.82;;;2.90;;
30874;SDS011;17581;43.222;27.924;2022-09-09T14:51:41;8.02;;;2.97;;
30874;SDS011;17581;43.222;27.924;2022-09-09T14:54:07;10.63;;;3.30;;
30874;SDS011;17581;43.222;27.924;2022-09-09T14:56:32;10.35;;;3.25;;
30874;SDS011;17581;43.222;27.924;2022-09-09T14:59:03;6.20;;;2.80;;
30874;SDS011;17581;43.222;27.924;2022-09-09T15:01:29;8.75;;;2.45;;
30874;SDS011;17581;43.222;27.924;2022-09-09T15:04:00;10.35;;;2.95;;
30874;SDS011;17581;43.222;27.924;2022-09-09T15:06:29;13.68;;;3.50;;
30874;SDS011;17581;43.222;27.924;2022-09-09T15:08:58;9.43;;;3.55;;
30874;SDS011;17581;43.222;27.924;2022-09-09T15:11:29;46.75;;;5.82;;
30874;SDS011;17581;43.222;27.924;2022-09-09T15:13:57;37.63;;;5.65;;
30874;SDS011;17581;43.222;27.924;2022-09-09T15:16:25;22.30;;;4.47;;
30874;SDS011;17581;43.222;27.924;2022-09-09T15:18:53;7.25;;;4.35;;
30874;SDS011;17581;43.222;27.924;2022-09-09T15:21:21;26.60;;;4.78;;
30874;SDS011;17581;43.222;27.924;2022-09-09T15:23:49;17.67;;;3.50;;
30874;SDS011;17581;43.222;27.924;2022-09-09T15:26:15;11.77;;;3.53;;
30874;SDS011;17581;43.222;27.924;2022-09-09T15:28:43;14.38;;;3.05;;
30874;SDS011;17581;43.222;27.924;2022-09-09T15:31:11;5.18;;;3.58;;
30874;SDS011;17581;43.222;27.924;2022-09-09T15:33:39;23.80;;;4.68;;
30874;SDS011;17581;43.222;27.924;2022-09-09T15:36:15;21.38;;;4.57;;
30874;SDS011;17581;43.222;27.924;2022-09-09T15:38:41;17.20;;;4.88;;
30874;SDS011;17581;43.222;27.924;2022-09-09T15:41:06;17.15;;;3.20;;
30874;SDS011;17581;43.222;27.924;2022-09-09T15:43:32;20.95;;;6.10;;
30874;SDS011;17581;43.222;27.924;2022-09-09T15:45:59;19.77;;;6.32;;
30874;SDS011;17581;43.222;27.924;2022-09-09T15:48:47;18.70;;;4.28;;
30874;SDS011;17581;43.222;27.924;2022-09-09T15:51:15;11.35;;;3.10;;
30874;SDS011;17581;43.222;27.924;2022-09-09T15:53:40;14.77;;;3.70;;
30874;SDS011;17581;43.222;27.924;2022-09-09T15:56:06;16.25;;;5.00;;
30874;SDS011;17581;43.222;27.924;2022-09-09T15:58:32;14.27;;;3.83;;
30874;SDS011;17581;43.222;27.924;2022-09-09T16:01:05;13.40;;;4.55;;
30874;SDS011;17581;43.222;27.924;2022-09-09T16:03:34;12.65;;;4.40;;
30874;SDS011;17581;43.222;27.924;2022-09-09T16:06:04;13.52;;;3.50;;
30874;SDS011;17581;43.222;27.924;2022-09-09T16:08:31;15.13;;;4.35;;
30874;SDS011;17581;43.222;27.924;2022-09-09T16:11:05;8.73;;;3.78;;
30874;SDS011;17581;43.222;27.924;2022-09-09T16:13:35;10.13;;;3.35;;
30874;SDS011;17581;43.222;27.924;2022-09-09T16:16:02;7.45;;;3.95;;
30874;SDS011;17581;43.222;27.924;2022-09-09T16:18:33;17.15;;;3.97;;
30874;SDS011;17581;43.222;27.924;2022-09-09T16:21:01;11.98;;;3.65;;
30874;SDS011;17581;43.222;27.924;2022-09-09T16:23:27;15.65;;;3.60;;
30874;SDS011;17581;43.222;27.924;2022-09-09T16:25:55;30.02;;;4.63;;
30874;SDS011;17581;43.222;27.924;2022-09-09T16:28:21;26.73;;;5.07;;
30874;SDS011;17581;43.222;27.924;2022-09-09T16:30:48;10.55;;;4.18;;
30874;SDS011;17581;43.222;27.924;2022-09-09T16:33:14;14.57;;;4.20;;
30874;SDS011;17581;43.222;27.924;2022-09-09T16:35:41;17.35;;;4.90;;
30874;SDS011;17581;43.222;27.924;2022-09-09T16:38:07;14.23;;;5.45;;
30874;SDS011;17581;43.222;27.924;2022-09-09T16:40:33;17.58;;;4.30;;
30874;SDS011;17581;43.222;27.924;2022-09-09T16:43:00;11.95;;;3.60;;
30874;SDS011;17581;43.222;27.924;2022-09-09T16:45:26;11.23;;;3.65;;
30874;SDS011;17581;43.222;27.924;2022-09-09T16:47:52;11.80;;;3.33;;
30874;SDS011;17581;43.222;27.924;2022-09-09T16:50:18;7.63;;;3.63;;
30874;SDS011;17581;43.222;27.924;2022-09-09T16:52:43;15.57;;;4.10;;
30874;SDS011;17581;43.222;27.924;2022-09-09T16:55:08;15.15;;;5.05;;
30874;SDS011;17581;43.222;27.924;2022-09-09T16:57:34;11.57;;;4.13;;
30874;SDS011;17581;43.222;27.924;2022-09-09T17:00:14;11.45;;;5.07;;
30874;SDS011;17581;43.222;27.924;2022-09-09T17:02:41;13.80;;;4.45;;
30874;SDS011;17581;43.222;27.924;2022-09-09T17:05:08;17.10;;;4.57;;